Position Fahrer Laps Zeit Diff Beste Runde Fahrzeug Status Gesamt Bonuspunkte Strafpunkte
1 kL1ck kL1ck 14 15:24.877 - 1:05.113 NSU TTS Cup Beendet 60 0 0
2 Reinhard Hiebl 14 15:25.441 0:00.564 1:04.900 NSU TTS Cup Beendet 55 0 0
3 Georg Ortner 14 15:29.446 0:04.569 1:04.827 NSU TTS Cup Beendet 51 0 0
4 J-F Chardon 14 15:29.648 0:04.771 1:05.160 NSU TTS Cup Beendet 48 0 0
5 Stefan Hilpert 14 15:30.837 0:05.960 1:04.997 NSU TTS Cup Beendet 46 0 0
6 André Gee 14 15:31.565 0:06.688 1:05.314 NSU TTS Cup Beendet 44 0 0
7 Peter Lupfer 14 15:31.632 0:06.755 1:05.306 NSU TTS Cup Beendet 42 0 0
8 Pete Snake 14 15:32.073 0:07.196 1:04.944 NSU TTS Cup Beendet 40 0 0
9 Thomas Horn 14 15:33.927 0:09.050 1:04.873 NSU TTS Cup Beendet 38 0 0
10 Jan Lehmann 14 15:33.953 0:09.076 1:05.141 NSU TTS Cup Beendet 36 0 0
11 Sascha Hetzel 14 15:34.396 0:09.519 1:04.786 NSU TTS Cup Beendet 34 0 0
12 Nicolas Schnabel 14 15:39.936 0:15.059 1:04.882 NSU TTS Cup Beendet 33 0 0
13 Sirko Sundermann 14 15:47.938 0:23.061 1:05.323 NSU TTS Cup Beendet 32 0 0
14 Steffen Weiß 14 15:48.475 0:23.598 1:05.430 NSU TTS Cup Beendet 31 0 0
15 Marcel Jochheim 14 15:48.584 0:23.707 1:05.897 NSU TTS Cup Beendet 30 0 0
16 Stefan Moebus 1 - -13L - NSU TTS Cup DNF 0 0 0
17 Lego Maenchen 1 - -13L - NSU TTS Cup DNF 0 0 0

Rennverlauf

Die schnellsten 5 pro Runde

Runde 1

Pos Rennpos Fahrer Zeit Diff
1 3 Sascha Hetzel 1:12.434 -
2 4 J-F Chardon 1:13.737 0:01.303
3 5 kL1ck kL1ck 1:14.080 0:01.646
4 6 André Gee 1:14.454 0:02.020
5 7 Jan Lehmann 1:14.734 0:02.300

Runde 2

Pos Rennpos Fahrer Zeit Diff
1 2 kL1ck kL1ck 1:05.287 -
2 1 Sascha Hetzel 1:05.623 0:00.336
3 13 Sirko Sundermann 1:05.721 0:00.434
4 4 Jan Lehmann 1:05.757 0:00.470
5 3 André Gee 1:05.973 0:00.686

Runde 3

Pos Rennpos Fahrer Zeit Diff
1 15 Nicolas Schnabel 1:05.064 -
2 1 Sascha Hetzel 1:05.332 0:00.268
3 2 kL1ck kL1ck 1:05.355 0:00.291
4 13 Sirko Sundermann 1:05.839 0:00.775
5 12 Pete Snake 1:05.867 0:00.803

Runde 4

Pos Rennpos Fahrer Zeit Diff
1 7 Georg Ortner 1:04.827 -
2 2 kL1ck kL1ck 1:05.113 0:00.286
3 6 Reinhard Hiebl 1:05.121 0:00.294
4 9 Thomas Horn 1:05.145 0:00.318
5 8 Peter Lupfer 1:05.366 0:00.539

Runde 5

Pos Rennpos Fahrer Zeit Diff
1 2 kL1ck kL1ck 1:05.198 -
2 8 Thomas Horn 1:05.323 0:00.125
3 10 Stefan Hilpert 1:05.384 0:00.186
4 1 Sascha Hetzel 1:05.439 0:00.241
5 6 Georg Ortner 1:05.512 0:00.314

Runde 6

Pos Rennpos Fahrer Zeit Diff
1 10 Pete Snake 1:05.427 -
2 7 Stefan Hilpert 1:05.439 0:00.012
3 15 Sirko Sundermann 1:05.592 0:00.165
4 2 kL1ck kL1ck 1:05.701 0:00.274
5 1 Sascha Hetzel 1:05.888 0:00.461

Runde 7

Pos Rennpos Fahrer Zeit Diff
1 10 Thomas Horn 1:04.873 -
2 9 Pete Snake 1:04.944 0:00.071
3 5 Stefan Hilpert 1:05.072 0:00.199
4 15 Sirko Sundermann 1:05.323 0:00.450
5 13 Nicolas Schnabel 1:05.361 0:00.488

Runde 8

Pos Rennpos Fahrer Zeit Diff
1 2 Reinhard Hiebl 1:05.089 -
2 1 kL1ck kL1ck 1:05.409 0:00.320
3 10 Steffen Weiß 1:05.430 0:00.341
4 12 Sascha Hetzel 1:05.445 0:00.356
5 3 André Gee 1:05.549 0:00.460

Runde 9

Pos Rennpos Fahrer Zeit Diff
1 5 Stefan Hilpert 1:04.997 -
2 2 Reinhard Hiebl 1:05.015 0:00.018
3 4 J-F Chardon 1:05.210 0:00.213
4 1 kL1ck kL1ck 1:05.357 0:00.360
5 13 Nicolas Schnabel 1:05.396 0:00.399

Runde 10

Pos Rennpos Fahrer Zeit Diff
1 13 Nicolas Schnabel 1:04.882 -
2 2 Reinhard Hiebl 1:04.900 0:00.018
3 6 Georg Ortner 1:04.993 0:00.111
4 5 Stefan Hilpert 1:05.014 0:00.132
5 3 André Gee 1:05.314 0:00.432

Runde 11

Pos Rennpos Fahrer Zeit Diff
1 6 Georg Ortner 1:04.976 -
2 2 Reinhard Hiebl 1:05.161 0:00.185
3 12 Nicolas Schnabel 1:05.169 0:00.193
4 1 kL1ck kL1ck 1:05.315 0:00.339
5 8 Pete Snake 1:05.346 0:00.370

Runde 12

Pos Rennpos Fahrer Zeit Diff
1 2 Reinhard Hiebl 1:05.053 -
2 8 Pete Snake 1:05.153 0:00.100
3 12 Nicolas Schnabel 1:05.193 0:00.140
4 1 kL1ck kL1ck 1:05.259 0:00.206
5 9 Jan Lehmann 1:05.495 0:00.442

Runde 13

Pos Rennpos Fahrer Zeit Diff
1 8 Pete Snake 1:05.008 -
2 9 Jan Lehmann 1:05.141 0:00.133
3 12 Nicolas Schnabel 1:05.271 0:00.263
4 3 Georg Ortner 1:05.302 0:00.294
5 7 Peter Lupfer 1:05.306 0:00.298

Runde 14

Pos Rennpos Fahrer Zeit Diff
1 11 Sascha Hetzel 1:04.786 -
2 9 Thomas Horn 1:04.917 0:00.131
3 2 Reinhard Hiebl 1:05.007 0:00.221
4 3 Georg Ortner 1:05.135 0:00.349
5 4 J-F Chardon 1:05.160 0:00.374

SERVER

0 / 61
virtualracing.org #1 GTM
Training 1Lime Rock Park -- Uphill Chicane
0 / 81
virtualracing.org #3 FS
Training 1Lime Rock Park -- Uphill Chicane
0 / 81
virtualracing.org #4 LSM
Training 1Spa-Francorchamps Endurance
0 / 34
virtualracing.org #5 VRF1S
Training 1Barcelona 2021
0 / 34
virtualracing.org #6 VRCS
Training 1Donington Park National Circuit
0 / 81
virtualracing.org #P1 BTCC
Training 1Oulton Park Island
0 / 81
virtualracing.org #P2 CA
Training 1Oulton Park International NC
0 / 34
virtualracing.org #P3 Mini
WarmUpSilverstone National
1 / 33
virtualracing.org #P4 IR18
Training 1Iowa Speedway Oval
0 / 104
virtualracing.org VRES L
TesttagNuerburgring -- rF2LN 24h
12 / 104
virtualracing.org VRES T
TesttagNuerburgring -- rF2LN 24h
0/31
virtualracing.org#4 GTC Training Standard
TrainingCircuito de Jerez - GP
0/31
virtualracing.org#5 GTC Training A
TrainingDaytona International Speedway - Road Course
0/16
virtualracing.org#30 ALT Training
Trainingaa_dover_speedway-nh